createdAt,value
2018-09-25T00:02:01.874Z,14.40
2018-09-25T00:04:38.490Z,20.23
2018-09-25T00:07:12.829Z,13.97
2018-09-25T00:09:47.170Z,14.80
2018-09-25T00:12:21.555Z,17.53
2018-09-25T00:14:55.998Z,11.90
2018-09-25T00:17:30.402Z,14.30
2018-09-25T00:20:04.742Z,20.23
2018-09-25T00:22:39.033Z,14.20
2018-09-25T00:25:15.473Z,13.13
2018-09-25T00:27:49.778Z,12.70
2018-09-25T00:30:24.098Z,14.37
2018-09-25T00:32:58.409Z,25.20
2018-09-25T00:35:32.844Z,19.13
2018-09-25T00:38:06.870Z,29.27
2018-09-25T00:40:41.182Z,24.10
2018-09-25T00:43:16.301Z,27.83
2018-09-25T00:45:50.862Z,22.17
2018-09-25T00:48:25.187Z,30.77
2018-09-25T00:50:59.481Z,20.47
2018-09-25T00:53:33.778Z,16.63
2018-09-25T00:56:08.073Z,17.27
2018-09-25T00:58:42.561Z,20.23
2018-09-25T01:01:16.913Z,29.00
2018-09-25T01:03:51.225Z,24.63
2018-09-25T01:06:25.577Z,17.47
2018-09-25T01:08:59.919Z,26.17
2018-09-25T01:11:34.241Z,23.27
2018-09-25T01:14:09.157Z,25.27
2018-09-25T01:16:43.614Z,21.13
2018-09-25T01:19:18.064Z,24.67
2018-09-25T01:21:52.445Z,23.30
2018-09-25T01:24:26.825Z,31.10
2018-09-25T01:27:01.250Z,21.03
2018-09-25T01:29:38.942Z,24.57
2018-09-25T01:32:13.374Z,26.27
2018-09-25T01:34:47.946Z,28.60
2018-09-25T01:37:22.391Z,32.67
2018-09-25T01:39:58.867Z,32.57
2018-09-25T01:42:33.676Z,23.70
2018-09-25T01:45:08.474Z,34.53
2018-09-25T01:47:42.965Z,25.70
2018-09-25T01:50:17.358Z,33.10
2018-09-25T01:52:51.718Z,20.70
2018-09-25T01:55:26.094Z,25.20
2018-09-25T01:58:01.054Z,23.50
2018-09-25T02:00:35.433Z,25.90
2018-09-25T02:03:09.810Z,21.30
2018-09-25T02:05:44.162Z,24.33
2018-09-25T02:08:18.891Z,27.30
2018-09-25T02:10:53.201Z,20.60
2018-09-25T02:13:27.538Z,19.77
2018-09-25T02:16:01.862Z,17.57
2018-09-25T02:18:36.257Z,22.53
2018-09-25T02:21:10.541Z,22.63
2018-09-25T02:23:44.848Z,24.10
2018-09-25T02:26:19.105Z,26.17
2018-09-25T02:28:53.539Z,19.87
2018-09-25T02:31:28.313Z,23.17
2018-09-25T02:34:02.737Z,23.87
2018-09-25T02:36:37.163Z,21.17
2018-09-25T02:39:14.990Z,25.87
2018-09-25T02:41:49.591Z,19.33
2018-09-25T02:44:24.066Z,17.47
2018-09-25T02:46:58.597Z,24.90
2018-09-25T02:49:33.203Z,31.40
2018-09-25T02:52:07.995Z,20.10
2018-09-25T02:54:42.377Z,24.30
2018-09-25T02:57:17.673Z,18.73
2018-09-25T02:59:52.283Z,25.20
2018-09-25T03:02:27.165Z,21.87
2018-09-25T03:05:02.790Z,33.67
2018-09-25T03:07:36.798Z,28.73
2018-09-25T03:10:11.957Z,24.57
2018-09-25T03:12:46.282Z,19.90
2018-09-25T03:15:20.725Z,22.33
2018-09-25T03:17:55.037Z,25.30
2018-09-25T03:20:30.062Z,24.73
2018-09-25T03:23:04.511Z,31.47
2018-09-25T03:25:38.869Z,24.10
2018-09-25T03:28:13.181Z,27.00
2018-09-25T03:30:47.669Z,26.40
2018-09-25T03:33:21.929Z,22.90
2018-09-25T03:35:56.226Z,32.93
2018-09-25T03:38:30.539Z,24.67
2018-09-25T03:41:05.062Z,24.50
2018-09-25T03:43:39.482Z,21.93
2018-09-25T03:46:13.809Z,29.47
2018-09-25T03:48:48.182Z,27.90
2018-09-25T03:51:22.618Z,28.27
2018-09-25T03:53:56.893Z,30.37
2018-09-25T03:56:31.209Z,30.20
2018-09-25T03:59:05.518Z,23.53
2018-09-25T04:01:39.938Z,31.50
2018-09-25T04:04:14.253Z,23.10
2018-09-25T04:06:48.738Z,24.50
2018-09-25T04:09:23.171Z,25.07
2018-09-25T04:11:57.478Z,23.93
2018-09-25T04:14:31.926Z,24.97
2018-09-25T04:17:06.342Z,27.43
2018-09-25T04:19:41.702Z,22.83
2018-09-25T04:22:16.079Z,25.47
2018-09-25T04:24:50.659Z,34.03
2018-09-25T04:27:25.539Z,35.97
2018-09-25T04:29:59.855Z,29.10
2018-09-25T04:32:34.692Z,28.50
2018-09-25T04:35:09.502Z,33.63
2018-09-25T04:37:45.242Z,26.77
2018-09-25T04:40:19.587Z,33.90
2018-09-25T04:42:53.934Z,31.37
2018-09-25T04:45:28.205Z,36.97
2018-09-25T04:48:02.525Z,41.57
2018-09-25T04:50:36.849Z,35.97
2018-09-25T04:53:11.434Z,42.23
2018-09-25T04:55:45.883Z,46.90
2018-09-25T04:58:20.182Z,43.03
2018-09-25T05:00:54.599Z,35.93
2018-09-25T05:03:29.117Z,41.93
2018-09-25T05:06:03.485Z,46.13
2018-09-25T05:08:38.505Z,36.60
2018-09-25T05:11:13.061Z,38.87
2018-09-25T05:13:47.709Z,36.50
2018-09-25T05:16:22.906Z,46.87
2018-09-25T05:18:57.427Z,47.90
2018-09-25T05:21:31.724Z,44.80
2018-09-25T05:24:06.585Z,40.40
2018-09-25T05:26:41.378Z,52.13
2018-09-25T05:29:16.166Z,47.53
2018-09-25T05:31:51.405Z,46.13
2018-09-25T05:34:26.139Z,43.43
2018-09-25T05:37:01.629Z,44.77
2018-09-25T05:39:36.765Z,51.73
2018-09-25T05:42:11.086Z,49.10
2018-09-25T05:44:45.386Z,38.57
2018-09-25T05:47:19.778Z,38.10
2018-09-25T05:49:54.170Z,40.70
2018-09-25T05:52:28.481Z,38.13
2018-09-25T05:55:02.786Z,41.07
2018-09-25T05:57:37.093Z,45.70
2018-09-25T06:00:11.826Z,40.00
2018-09-25T06:02:46.263Z,36.83
2018-09-25T06:05:20.654Z,38.00
2018-09-25T06:07:54.954Z,42.90
2018-09-25T06:10:29.362Z,48.30
2018-09-25T06:13:03.645Z,51.30
2018-09-25T06:15:38.647Z,42.93
2018-09-25T06:18:12.912Z,34.60
2018-09-25T06:20:47.242Z,35.97
2018-09-25T06:23:21.529Z,36.43
2018-09-25T06:25:55.866Z,20.90
2018-09-25T06:28:30.129Z,16.70
2018-09-25T06:31:05.205Z,29.83
2018-09-25T06:33:39.677Z,12.67
2018-09-25T06:36:14.158Z,14.40
2018-09-25T06:38:48.438Z,10.10
2018-09-25T06:41:23.230Z,7.80
2018-09-25T06:43:57.842Z,9.77
2018-09-25T06:46:32.962Z,7.17
2018-09-25T06:49:07.379Z,9.77
2018-09-25T06:51:41.727Z,9.23
2018-09-25T06:54:16.744Z,7.10
2018-09-25T06:56:52.037Z,9.87
2018-09-25T06:59:26.372Z,15.33
2018-09-25T07:02:00.678Z,14.23
2018-09-25T07:04:35.095Z,11.40
2018-09-25T07:07:09.510Z,9.40
2018-09-25T07:09:44.111Z,18.50
2018-09-25T07:12:18.465Z,7.70
2018-09-25T07:14:52.769Z,8.80
2018-09-25T07:17:27.560Z,10.80
2018-09-25T07:20:01.897Z,14.07
2018-09-25T07:22:37.432Z,7.30
2018-09-25T07:25:12.841Z,7.67
2018-09-25T07:27:47.112Z,9.63
2018-09-25T07:30:21.448Z,8.40
2018-09-25T07:32:55.842Z,8.87
2018-09-25T07:35:30.178Z,11.97
2018-09-25T07:38:04.478Z,10.93
2018-09-25T07:40:38.771Z,8.97
2018-09-25T07:43:13.583Z,5.47
2018-09-25T07:45:48.587Z,7.90
2018-09-25T07:48:22.997Z,6.37
2018-09-25T07:50:57.382Z,11.07
2018-09-25T07:53:31.676Z,9.33
2018-09-25T07:56:05.981Z,12.10
2018-09-25T07:58:40.715Z,6.00
2018-09-25T08:01:15.329Z,7.83
2018-09-25T08:03:49.802Z,8.43
2018-09-25T08:06:24.282Z,7.97
2018-09-25T08:08:58.629Z,7.43
2018-09-25T08:11:32.967Z,7.57
2018-09-25T08:14:07.269Z,10.80
2018-09-25T08:16:41.714Z,3.70
2018-09-25T08:19:16.217Z,3.23
2018-09-25T08:21:50.974Z,10.33
2018-09-25T08:24:25.463Z,5.77
2018-09-25T08:27:00.005Z,6.93
2018-09-25T08:29:34.862Z,12.80
2018-09-25T08:32:09.910Z,4.10
2018-09-25T08:34:44.452Z,10.80
2018-09-25T08:37:19.598Z,5.33
2018-09-25T08:39:54.017Z,5.97
2018-09-25T08:42:28.332Z,7.10
2018-09-25T08:45:02.638Z,7.93
2018-09-25T08:47:37.009Z,4.90
2018-09-25T08:50:11.516Z,6.20
2018-09-25T08:52:45.966Z,5.73
2018-09-25T08:55:20.362Z,7.33
2018-09-25T08:57:54.650Z,4.57
2018-09-25T09:00:28.987Z,7.27
2018-09-25T09:03:03.367Z,4.63
2018-09-25T09:05:38.006Z,7.17
2018-09-25T09:08:12.077Z,4.23
2018-09-25T09:10:46.488Z,5.33
2018-09-25T09:13:20.857Z,6.67
2018-09-25T09:15:55.143Z,5.20
2018-09-25T09:18:29.454Z,6.93
2018-09-25T09:21:03.758Z,4.20
2018-09-25T09:23:38.094Z,6.83
2018-09-25T09:26:13.072Z,5.03
2018-09-25T09:28:47.431Z,6.73
2018-09-25T09:31:21.765Z,7.13
2018-09-25T09:33:56.666Z,6.73
2018-09-25T09:36:31.629Z,5.00
2018-09-25T09:39:05.950Z,5.10
2018-09-25T09:41:40.494Z,2.83
2018-09-25T09:44:14.660Z,4.23
2018-09-25T09:46:49.173Z,3.93
2018-09-25T09:49:23.503Z,5.60
2018-09-25T09:51:57.859Z,5.43
2018-09-25T09:54:35.429Z,6.63
2018-09-25T09:57:09.769Z,8.77
2018-09-25T09:59:44.097Z,3.57
2018-09-25T10:02:18.549Z,4.10
2018-09-25T10:04:52.931Z,4.40
2018-09-25T10:07:27.390Z,5.40
2018-09-25T10:10:01.958Z,5.00
2018-09-25T10:12:36.490Z,7.50
2018-09-25T10:15:11.778Z,8.07
2018-09-25T10:17:46.295Z,4.90
2018-09-25T10:20:20.642Z,5.53
2018-09-25T10:22:55.081Z,5.17
2018-09-25T10:25:29.998Z,6.13
2018-09-25T10:28:04.943Z,5.50
2018-09-25T10:30:39.386Z,4.83
2018-09-25T10:33:13.682Z,3.90
2018-09-25T10:35:48.049Z,7.20
2018-09-25T10:38:22.393Z,3.93
2018-09-25T10:40:56.862Z,2.90
2018-09-25T10:43:31.423Z,8.03
2018-09-25T10:46:05.836Z,9.13
2018-09-25T10:48:40.258Z,6.17
2018-09-25T10:51:14.581Z,6.47
2018-09-25T10:53:49.150Z,9.50
2018-09-25T10:56:23.433Z,4.83
2018-09-25T10:58:57.967Z,5.33
2018-09-25T11:01:33.130Z,6.27
2018-09-25T11:04:07.727Z,4.87
2018-09-25T11:06:42.263Z,7.53
2018-09-25T11:09:16.575Z,4.50
2018-09-25T11:11:51.503Z,4.33
2018-09-25T11:14:25.857Z,6.43
2018-09-25T11:17:00.246Z,7.03
2018-09-25T11:19:34.665Z,7.57
2018-09-25T11:22:09.977Z,6.17
2018-09-25T11:24:44.406Z,8.80
2018-09-25T11:27:18.839Z,5.00
2018-09-25T11:29:54.396Z,3.77
2018-09-25T11:32:28.710Z,5.80
2018-09-25T11:35:03.021Z,4.13
2018-09-25T11:37:37.982Z,5.10
2018-09-25T11:40:12.407Z,5.63
2018-09-25T11:42:46.709Z,7.23
2018-09-25T11:45:21.234Z,5.23
2018-09-25T11:47:56.237Z,4.40
2018-09-25T11:50:30.567Z,4.50
2018-09-25T11:53:05.538Z,4.00
2018-09-25T11:55:39.850Z,8.30
2018-09-25T11:58:14.353Z,6.50
2018-09-25T12:00:48.654Z,6.03
2018-09-25T12:03:22.952Z,4.37
2018-09-25T12:05:57.246Z,5.43
2018-09-25T12:08:31.531Z,4.87
2018-09-25T12:11:06.077Z,3.33
2018-09-25T12:13:41.663Z,7.07
2018-09-25T12:16:15.992Z,4.27
2018-09-25T12:18:50.389Z,6.03
2018-09-25T12:21:24.845Z,8.17
2018-09-25T12:23:59.252Z,6.03
2018-09-25T12:26:33.828Z,3.33
2018-09-25T12:29:08.213Z,3.63
2018-09-25T12:31:43.397Z,3.50
2018-09-25T12:34:17.701Z,6.37
2018-09-25T12:36:51.982Z,3.77
2018-09-25T12:39:26.304Z,2.90
2018-09-25T12:42:00.632Z,4.40
2018-09-25T12:44:34.924Z,5.10
2018-09-25T12:47:09.238Z,4.13
2018-09-25T12:49:44.133Z,9.90
2018-09-25T12:52:18.481Z,3.30
2018-09-25T12:54:52.831Z,3.10
2018-09-25T12:57:27.174Z,4.80
2018-09-25T13:00:01.466Z,3.90
2018-09-25T13:02:35.815Z,3.63
2018-09-25T13:05:10.533Z,3.57
2018-09-25T13:07:44.926Z,4.33
2018-09-25T13:10:19.278Z,4.23
2018-09-25T13:12:53.773Z,5.07
2018-09-25T13:15:28.618Z,2.90
2018-09-25T13:18:02.983Z,4.30
2018-09-25T13:20:38.142Z,4.27
2018-09-25T13:23:12.518Z,2.40
2018-09-25T13:25:47.959Z,4.67
2018-09-25T13:28:22.328Z,3.80
2018-09-25T13:30:56.735Z,4.63
2018-09-25T13:33:31.271Z,5.03
2018-09-25T13:36:06.254Z,9.23
2018-09-25T13:38:41.105Z,8.37
2018-09-25T13:41:15.961Z,4.83
2018-09-25T13:43:50.255Z,3.57
2018-09-25T13:46:25.818Z,3.80
2018-09-25T13:49:00.135Z,4.07
2018-09-25T13:51:34.425Z,3.30
2018-09-25T13:54:09.249Z,4.40
2018-09-25T13:56:43.567Z,3.20
2018-09-25T13:59:17.931Z,3.07
2018-09-25T14:01:52.314Z,5.57
2018-09-25T14:04:26.583Z,3.70
2018-09-25T14:07:01.587Z,5.27
2018-09-25T14:09:36.154Z,6.83
2018-09-25T14:12:10.415Z,2.90
2018-09-25T14:14:45.583Z,3.97
2018-09-25T14:17:20.383Z,3.70
2018-09-25T14:19:55.104Z,5.30
2018-09-25T14:22:29.553Z,4.17
2018-09-25T14:25:04.009Z,5.30
2018-09-25T14:27:38.456Z,3.27
2018-09-25T14:30:13.352Z,3.43
2018-09-25T14:32:47.902Z,3.70
2018-09-25T14:35:22.406Z,7.20
2018-09-25T14:37:56.920Z,5.03
2018-09-25T14:40:31.205Z,5.30
2018-09-25T14:43:05.583Z,3.00
2018-09-25T14:45:40.204Z,3.27
2018-09-25T14:48:14.626Z,4.83
2018-09-25T14:50:49.053Z,3.00
2018-09-25T14:53:23.386Z,3.90
2018-09-25T14:55:58.178Z,3.20
2018-09-25T14:58:32.719Z,3.27
2018-09-25T15:01:07.437Z,4.03
2018-09-25T15:03:41.717Z,5.83
2018-09-25T15:06:16.034Z,4.63
2018-09-25T15:08:50.328Z,3.57
2018-09-25T15:11:24.753Z,6.73
2018-09-25T15:13:59.035Z,3.80
2018-09-25T15:16:33.531Z,4.20
2018-09-25T15:19:08.855Z,2.60
2018-09-25T15:21:43.341Z,3.43
2018-09-25T15:24:17.628Z,3.07
2018-09-25T15:26:51.939Z,4.27
2018-09-25T15:29:26.458Z,5.50
2018-09-25T15:32:00.822Z,4.83
2018-09-25T15:34:35.198Z,4.07
2018-09-25T15:37:10.466Z,5.30
2018-09-25T15:39:46.057Z,4.30
2018-09-25T15:42:20.859Z,6.43
2018-09-25T15:44:55.026Z,4.77
2018-09-25T15:47:30.491Z,2.40
2018-09-25T15:50:05.226Z,3.60
2018-09-25T15:52:39.430Z,3.13
2018-09-25T15:55:15.920Z,4.30
2018-09-25T15:57:50.502Z,10.03
2018-09-25T16:00:24.974Z,9.13
2018-09-25T16:03:01.736Z,5.70
2018-09-25T16:05:36.540Z,3.73
2018-09-25T16:08:12.319Z,4.47
2018-09-25T16:10:48.246Z,9.43
2018-09-25T16:13:22.838Z,5.97
2018-09-25T16:15:57.283Z,11.50
2018-09-25T16:18:32.184Z,5.47
2018-09-25T16:21:06.644Z,3.53
2018-09-25T16:23:41.205Z,2.40
2018-09-25T16:26:16.392Z,3.77
2018-09-25T16:28:50.892Z,6.73
2018-09-25T16:31:25.228Z,8.40
2018-09-25T16:33:59.538Z,3.60
2018-09-25T16:36:33.943Z,3.40
2018-09-25T16:39:08.237Z,3.80
2018-09-25T16:41:42.626Z,16.60
2018-09-25T16:44:16.946Z,4.03
2018-09-25T16:46:51.425Z,11.60
2018-09-25T16:49:26.242Z,3.33
2018-09-25T16:52:01.917Z,7.77
2018-09-25T16:54:36.221Z,5.07
2018-09-25T16:57:10.971Z,9.10
2018-09-25T16:59:45.473Z,4.80
2018-09-25T17:02:19.761Z,8.27
2018-09-25T17:04:55.205Z,3.67
2018-09-25T17:07:29.482Z,3.37
2018-09-25T17:10:03.802Z,5.60
2018-09-25T17:12:38.114Z,3.43
2018-09-25T17:15:12.443Z,9.40
2018-09-25T17:17:47.783Z,7.40
2018-09-25T17:20:22.307Z,3.67
2018-09-25T17:22:56.744Z,5.27
2018-09-25T17:25:31.166Z,2.53
2018-09-25T17:28:05.641Z,8.30
2018-09-25T17:30:40.069Z,6.50
2018-09-25T17:33:14.453Z,5.83
2018-09-25T17:35:48.874Z,3.67
2018-09-25T17:38:23.198Z,8.70
2018-09-25T17:40:57.574Z,6.57
2018-09-25T17:43:33.018Z,3.37
2018-09-25T17:46:07.346Z,10.93
2018-09-25T17:48:41.896Z,7.40
2018-09-25T17:51:16.170Z,7.70
2018-09-25T17:53:50.522Z,4.80
2018-09-25T17:56:26.093Z,7.40
2018-09-25T17:59:01.770Z,4.43
2018-09-25T18:01:36.582Z,5.47
2018-09-25T18:04:10.838Z,4.23
2018-09-25T18:06:45.225Z,7.07
2018-09-25T18:09:19.567Z,9.40
2018-09-25T18:11:53.913Z,6.63
2018-09-25T18:14:28.326Z,6.47
2018-09-25T18:17:02.693Z,4.50
2018-09-25T18:19:37.167Z,4.87
2018-09-25T18:22:11.691Z,3.93
2018-09-25T18:24:46.010Z,8.07
2018-09-25T18:27:20.350Z,5.40
2018-09-25T18:29:54.682Z,8.13
2018-09-25T18:32:28.975Z,5.03
2018-09-25T18:35:04.777Z,4.50
2018-09-25T18:37:39.929Z,6.20
2018-09-25T18:40:14.390Z,8.47
2018-09-25T18:42:48.830Z,4.30
2018-09-25T18:45:23.366Z,5.97
2018-09-25T18:47:57.646Z,6.50
2018-09-25T18:50:32.174Z,8.03
2018-09-25T18:53:06.706Z,6.03
2018-09-25T18:55:41.067Z,5.20
2018-09-25T18:58:15.583Z,7.77
2018-09-25T19:00:50.076Z,7.53
2018-09-25T19:03:24.523Z,7.10
2018-09-25T19:05:58.966Z,7.93
2018-09-25T19:08:33.346Z,5.20
2018-09-25T19:11:14.243Z,9.13
2018-09-25T19:13:48.661Z,5.70
2018-09-25T19:16:23.079Z,5.67
2018-09-25T19:18:57.779Z,7.60
2018-09-25T19:21:32.828Z,5.57
2018-09-25T19:24:07.262Z,10.90
2018-09-25T19:26:41.722Z,6.33
2018-09-25T19:29:16.251Z,6.50
2018-09-25T19:31:50.662Z,5.27
2018-09-25T19:34:25.083Z,5.70
2018-09-25T19:36:59.414Z,5.53
2018-09-25T19:39:33.729Z,7.17
2018-09-25T19:42:09.490Z,7.70
2018-09-25T19:44:43.868Z,7.20
2018-09-25T19:47:18.220Z,16.43
2018-09-25T19:49:52.688Z,2.97
2018-09-25T19:52:27.143Z,4.90
2018-09-25T19:55:01.494Z,10.70
2018-09-25T19:57:35.847Z,15.77
2018-09-25T20:00:10.322Z,7.40
2018-09-25T20:02:44.681Z,5.73
2018-09-25T20:05:19.038Z,4.37
2018-09-25T20:07:53.995Z,6.50
2018-09-25T20:10:28.518Z,8.93
2018-09-25T20:13:02.925Z,6.67
2018-09-25T20:15:37.225Z,8.17
2018-09-25T20:18:11.521Z,5.77
2018-09-25T20:20:45.925Z,10.93
2018-09-25T20:23:20.602Z,11.83
2018-09-25T20:25:55.366Z,10.20
2018-09-25T20:28:29.711Z,9.50
2018-09-25T20:31:04.230Z,5.00
2018-09-25T20:33:38.911Z,7.90
2018-09-25T20:36:13.486Z,5.30
2018-09-25T20:38:47.973Z,7.40
2018-09-25T20:41:22.303Z,8.30
2018-09-25T20:43:56.753Z,7.13
2018-09-25T20:46:31.053Z,6.63
2018-09-25T20:49:05.467Z,11.57
2018-09-25T20:51:39.926Z,8.27
2018-09-25T20:54:14.327Z,5.80
2018-09-25T20:56:48.604Z,3.93
2018-09-25T20:59:23.634Z,3.30
2018-09-25T21:01:58.003Z,5.57
2018-09-25T21:04:32.305Z,6.77
2018-09-25T21:07:06.573Z,8.37
2018-09-25T21:09:40.903Z,4.10
2018-09-25T21:12:15.215Z,6.00
2018-09-25T21:14:49.706Z,6.33
2018-09-25T21:17:24.059Z,6.30
2018-09-25T21:19:58.538Z,7.73
2018-09-25T21:22:33.002Z,8.57
2018-09-25T21:25:08.054Z,6.40
2018-09-25T21:27:42.590Z,13.40
2018-09-25T21:30:17.460Z,12.83
2018-09-25T21:32:52.074Z,13.20
2018-09-25T21:35:26.604Z,8.77
2018-09-25T21:38:01.520Z,8.80
2018-09-25T21:40:35.811Z,5.03
2018-09-25T21:43:10.510Z,9.40
2018-09-25T21:45:45.102Z,6.37
2018-09-25T21:48:19.901Z,6.43
2018-09-25T21:50:54.296Z,7.40
2018-09-25T21:53:28.269Z,7.43
2018-09-25T21:56:02.752Z,8.13
2018-09-25T21:58:37.065Z,4.97
2018-09-25T22:01:11.362Z,18.70
2018-09-25T22:03:45.726Z,6.00
2018-09-25T22:06:19.989Z,3.20
2018-09-25T22:08:54.329Z,5.80
2018-09-25T22:11:30.184Z,9.47
2018-09-25T22:14:05.209Z,4.43
2018-09-25T22:16:39.870Z,6.17
2018-09-25T22:19:14.638Z,6.67
2018-09-25T22:21:50.520Z,5.83
2018-09-25T22:24:25.362Z,4.50
2018-09-25T22:27:01.846Z,5.83
2018-09-25T22:29:36.602Z,7.03
2018-09-25T22:32:12.074Z,4.30
2018-09-25T22:34:47.692Z,4.50
2018-09-25T22:37:23.590Z,5.63
2018-09-25T22:39:58.406Z,9.00
2018-09-25T22:42:33.300Z,4.87
2018-09-25T22:45:08.103Z,6.43
2018-09-25T22:47:42.837Z,5.80
2018-09-25T22:50:17.773Z,7.07
2018-09-25T22:52:52.757Z,8.17
2018-09-25T22:55:27.085Z,4.30
2018-09-25T22:58:09.550Z,8.80
2018-09-25T23:00:43.957Z,6.57
2018-09-25T23:03:18.346Z,2.80
2018-09-25T23:05:52.881Z,6.40
2018-09-25T23:08:27.047Z,4.97
2018-09-25T23:11:01.496Z,5.53
2018-09-25T23:13:35.896Z,6.20
2018-09-25T23:16:10.359Z,4.13
2018-09-25T23:18:44.879Z,8.80
2018-09-25T23:21:19.277Z,5.40
2018-09-25T23:23:53.794Z,8.63
2018-09-25T23:26:28.217Z,6.07
2018-09-25T23:29:02.533Z,6.03
2018-09-25T23:31:36.921Z,9.13
2018-09-25T23:34:12.143Z,6.03
2018-09-25T23:36:46.488Z,5.47
2018-09-25T23:39:19.689Z,9.30
2018-09-25T23:41:58.103Z,4.07
2018-09-25T23:44:32.396Z,6.53
2018-09-25T23:47:05.578Z,4.73
2018-09-25T23:49:42.010Z,4.47
2018-09-25T23:52:19.695Z,3.00
2018-09-25T23:54:53.588Z,8.57
2018-09-25T23:57:25.887Z,5.43
